Time;durP1;ratioP1;P1;durP2;ratioP2;P2;SDS_P1;SDS_P2;PMS_P1;PMS_P2;Temp;Humidity;BMP_temperature;BMP_pressure;BME280_temperature;BME280_humidity;BME280_pressure;Samples;Min_cycle;Max_cycle;Signal;HPM_P1;HPM_P2
2022/02/04 10:05:02;;;;;;;2.43;1.83;;;;;;;8.45;98.70;98713.34;5148347;27;43716;-83
2022/02/04 10:07:38;;;;;;;2.70;1.83;;;;;;;8.86;94.55;98718.91;5132344;27;42162;-85
2022/02/04 10:13:31;;;;;;;2.37;1.83;;;;;;;9.17;89.62;98709.16;5132288;27;43334;-82
2022/02/04 10:16:21;;;;;;;3.53;1.97;;;;;;;9.27;87.92;98702.44;5131517;27;42495;-84
2022/02/04 10:19:03;;;;;;;3.70;2.23;;;;;;;9.42;86.79;98690.06;5132127;27;40997;-84
2022/02/04 10:21:31;;;;;;;2.43;2.10;;;;;;;9.58;85.83;98696.97;5126142;27;38931;-84
2022/02/04 10:23:59;;;;;;;1.80;1.47;;;;;;;9.75;85.14;98695.09;5149088;27;41464;-83
2022/02/04 10:26:27;;;;;;;2.33;2.10;;;;;;;9.95;85.03;98713.22;5130704;27;44469;-83
2022/02/04 10:28:56;;;;;;;2.00;1.80;;;;;;;10.07;83.17;98709.81;5131526;27;40882;-86
2022/02/04 10:31:26;;;;;;;2.13;1.93;;;;;;;10.24;82.37;98722.88;5131780;27;38758;-84
2022/02/04 10:34:00;;;;;;;2.87;1.70;;;;;;;10.20;81.54;98702.84;5131533;27;40516;-83
2022/02/04 10:36:45;;;;;;;3.10;2.10;;;;;;;10.33;80.66;98722.28;5131555;27;44688;-82
2022/02/04 10:39:43;;;;;;;2.07;1.60;;;;;;;10.31;80.39;98700.34;5131553;27;42614;-81
2022/02/04 10:42:23;;;;;;;1.97;1.80;;;;;;;10.39;78.86;98718.38;5148644;27;40417;-81
2022/02/04 10:59:47;;;;;;;1.93;1.50;;;;;;;10.03;77.43;98658.03;5131063;27;43582;-84
2022/02/04 11:02:33;;;;;;;2.13;1.50;;;;;;;10.25;77.58;98676.94;5146425;27;42414;-84
2022/02/04 11:05:10;;;;;;;1.63;1.40;;;;;;;10.30;77.91;98664.25;5131639;27;39244;-82
2022/02/04 11:10:33;;;;;;;2.30;1.93;;;;;;;10.29;76.83;98641.38;5100009;27;42282;-82
2022/02/04 11:33:01;;;;;;;1.53;1.43;;;;;;;9.94;76.19;98634.81;5132505;27;42682;-81
2022/02/04 11:35:31;;;;;;;1.90;1.33;;;;;;;9.80;76.42;98640.13;5133063;27;41354;-79
2022/02/04 11:52:44;;;;;;;2.83;1.30;;;;;;;9.88;74.90;98620.19;5116681;27;42620;-82
2022/02/04 11:55:31;;;;;;;1.20;1.10;;;;;;;9.80;74.71;98609.22;5131703;27;42969;-84
2022/02/04 11:58:03;;;;;;;1.47;1.00;;;;;;;9.85;74.79;98603.66;5116579;27;41069;-89
2022/02/04 12:00:36;;;;;;;1.13;1.00;;;;;;;9.90;73.80;98598.91;5116181;27;40433;-85
2022/02/04 12:03:24;;;;;;;2.13;1.07;;;;;;;10.18;73.25;98601.53;5116748;27;43319;-83
2022/02/04 12:05:52;;;;;;;1.13;0.90;;;;;;;10.53;72.61;98611.59;5116111;27;41953;-85
2022/02/04 12:08:34;;;;;;;1.10;1.00;;;;;;;10.61;72.09;98593.41;5116549;27;41035;-85
2022/02/04 12:11:08;;;;;;;1.60;1.00;;;;;;;10.74;70.97;98591.63;5130402;27;39654;-83
2022/02/04 12:14:21;;;;;;;1.13;1.03;;;;;;;10.84;69.50;98589.22;5116124;27;41852;-84
2022/02/04 12:17:03;;;;;;;1.10;1.00;;;;;;;10.91;69.81;98590.47;5115354;27;41487;-82
2022/02/04 12:19:39;;;;;;;1.23;0.80;;;;;;;10.83;69.48;98598.97;5115520;27;41376;-81
2022/02/04 12:22:08;;;;;;;1.00;1.00;;;;;;;10.75;69.55;98590.69;5115958;27;38886;-84
2022/02/04 12:24:43;;;;;;;1.10;1.00;;;;;;;10.64;69.97;98580.78;5133529;27;42146;-85
2022/02/04 12:27:35;;;;;;;0.63;0.63;;;;;;;10.61;70.10;98562.47;5116130;27;44602;-84
2022/02/04 12:30:45;;;;;;;0.77;0.77;;;;;;;10.78;70.11;98574.56;5134227;27;42276;-85
2022/02/04 12:33:15;;;;;;;0.80;0.80;;;;;;;10.98;69.44;98568.78;5115404;27;40162;-83
2022/02/04 12:35:42;;;;;;;0.83;0.83;;;;;;;11.09;69.62;98566.22;5115724;27;41043;-84
2022/02/04 12:38:10;;;;;;;1.10;0.90;;;;;;;11.22;68.88;98562.72;5116499;27;43404;-83
2022/02/04 12:40:39;;;;;;;0.70;0.70;;;;;;;11.96;66.98;98576.00;5132514;27;41371;-84
2022/02/04 12:43:06;;;;;;;0.80;0.80;;;;;;;12.02;66.61;98561.41;5133353;27;40112;-84
2022/02/04 12:45:39;;;;;;;0.50;0.50;;;;;;;12.22;64.42;98576.75;5132575;27;41630;-84
2022/02/04 12:48:09;;;;;;;0.67;0.53;;;;;;;12.56;63.56;98557.31;5116025;27;44182;-85
2022/02/04 12:50:40;;;;;;;0.57;0.57;;;;;;;13.21;62.20;98574.53;5115153;27;41057;-85
2022/02/04 12:53:08;;;;;;;0.60;0.60;;;;;;;13.57;60.46;98562.84;5130321;27;41481;-85
2022/02/04 12:55:58;;;;;;;0.80;0.80;;;;;;;13.69;59.94;98571.66;5132232;27;42089;-84
2022/02/04 12:58:44;;;;;;;0.57;0.57;;;;;;;13.36;61.05;98544.06;5124628;27;43995;-85
2022/02/04 13:12:18;;;;;;;0.50;0.50;;;;;;;12.24;61.87;98548.25;5134899;27;43767;-84
2022/02/04 13:14:48;;;;;;;0.63;0.50;;;;;;;11.94;61.90;98518.66;5115575;27;38995;-82
2022/02/04 13:17:32;;;;;;;0.67;0.60;;;;;;;11.81;62.84;98524.03;5132402;27;41512;-85
2022/02/04 13:20:01;;;;;;;0.60;0.60;;;;;;;11.53;63.52;98514.53;5113351;27;41607;-82
2022/02/04 13:22:29;;;;;;;0.70;0.70;;;;;;;11.31;64.36;98507.25;5132593;27;41244;-83
2022/02/04 13:25:12;;;;;;;0.43;0.43;;;;;;;11.12;65.64;98509.53;5115393;27;41471;-82
2022/02/04 13:27:59;;;;;;;0.53;0.50;;;;;;;10.79;67.22;98494.16;5109983;28;42833;-83
2022/02/04 13:30:30;;;;;;;0.47;0.47;;;;;;;10.44;67.83;98465.66;5112443;27;43164;-82
2022/02/04 13:32:58;;;;;;;1.50;0.60;;;;;;;10.55;68.96;98493.19;5130308;27;42017;-83
2022/02/04 13:35:29;;;;;;;0.60;0.60;;;;;;;10.51;69.22;98473.19;5115103;27;40126;-86
2022/02/04 13:38:02;;;;;;;0.40;0.40;;;;;;;10.54;69.99;98475.59;5115370;27;41681;-82
2022/02/04 13:40:53;;;;;;;0.40;0.40;;;;;;;10.52;69.85;98483.66;5132032;27;42573;-85
2022/02/04 13:43:31;;;;;;;0.53;0.53;;;;;;;10.48;70.09;98478.69;5115624;27;41238;-82
2022/02/04 13:46:09;;;;;;;0.50;0.50;;;;;;;10.41;70.74;98481.75;5115220;27;38783;-83
2022/02/04 13:48:57;;;;;;;0.60;0.60;;;;;;;10.24;70.81;98471.47;5115241;27;42436;-82
2022/02/04 13:51:41;;;;;;;0.60;0.60;;;;;;;9.82;70.98;98414.28;5115191;27;42790;-83
2022/02/04 13:54:22;;;;;;;0.60;0.60;;;;;;;9.90;71.66;98450.78;5129570;27;43115;-83
2022/02/04 13:56:58;;;;;;;0.50;0.50;;;;;;;9.79;72.24;98440.06;5106434;27;38979;-85
2022/02/04 13:59:38;;;;;;;0.40;0.40;;;;;;;9.80;72.40;98462.94;5112674;27;40862;-82
2022/02/04 14:02:11;;;;;;;0.80;0.80;;;;;;;9.71;72.56;98469.69;5108802;27;41949;-84
2022/02/04 14:04:52;;;;;;;0.70;0.70;;;;;;;9.44;72.80;98445.88;5131197;27;41948;-83
2022/02/04 14:07:23;;;;;;;0.40;0.40;;;;;;;9.32;72.20;98441.38;5114733;27;39816;-80
2022/02/04 14:09:57;;;;;;;0.53;0.53;;;;;;;9.27;71.53;98454.06;5108723;28;41693;-82
2022/02/04 14:12:25;;;;;;;0.43;0.43;;;;;;;9.09;70.77;98442.00;5111308;27;41885;-82
2022/02/04 14:15:01;;;;;;;0.67;0.67;;;;;;;9.26;71.43;98462.91;5107844;28;41915;-82
2022/02/04 14:17:31;;;;;;;1.27;0.70;;;;;;;9.23;70.66;98469.25;5121092;27;40247;-84
2022/02/04 14:19:59;;;;;;;0.60;0.60;;;;;;;9.12;70.80;98444.44;5100040;27;40707;-84
2022/02/04 14:22:27;;;;;;;0.80;0.80;;;;;;;9.13;70.06;98454.06;5131374;27;43291;-84
2022/02/04 14:24:59;;;;;;;0.70;0.70;;;;;;;9.17;69.78;98464.31;5113493;27;42816;-82
2022/02/04 14:27:26;;;;;;;0.80;0.80;;;;;;;9.06;69.70;98450.94;5114055;27;39427;-85
2022/02/04 14:30:05;;;;;;;0.80;0.80;;;;;;;9.18;69.55;98459.91;5106774;28;41878;-83
2022/02/04 14:32:46;;;;;;;1.40;1.00;;;;;;;9.14;69.37;98434.63;5126115;27;42961;-81
2022/02/04 14:35:24;;;;;;;1.20;0.90;;;;;;;9.20;69.22;98439.50;5103838;28;41520;-83
2022/02/04 14:49:16;;;;;;;0.70;0.70;;;;;;;9.30;68.46;98448.53;5124606;27;39960;-83
2022/02/04 14:49:24;;;;;;;0.70;0.70;;;;;;;9.11;68.56;98421.63;5117586;27;40042;-82
2022/02/04 15:03:27;;;;;;;0.67;0.60;;;;;;;8.99;68.38;98420.59;5043906;28;40447;-80
2022/02/04 15:06:05;;;;;;;0.50;0.50;;;;;;;9.02;67.39;98418.59;5116702;27;44305;-83
2022/02/04 15:08:36;;;;;;;0.40;0.40;;;;;;;8.92;67.54;98391.06;5108264;27;41038;-85
2022/02/04 15:11:13;;;;;;;0.40;0.40;;;;;;;8.97;66.93;98415.41;5114720;27;39213;-83
2022/02/04 15:13:42;;;;;;;0.60;0.47;;;;;;;8.98;66.98;98422.38;5116750;27;41762;-85
2022/02/04 15:16:10;;;;;;;0.80;0.53;;;;;;;8.91;66.85;98421.06;5112787;27;41574;-84
2022/02/04 15:18:40;;;;;;;0.80;0.50;;;;;;;8.85;66.21;98407.41;5132521;27;42096;-85
2022/02/04 15:21:12;;;;;;;0.50;0.50;;;;;;;8.80;65.70;98394.47;5115282;27;39220;-83
2022/02/04 15:23:40;;;;;;;0.40;0.40;;;;;;;8.77;66.25;98397.34;5115468;27;40890;-83
2022/02/04 15:26:10;;;;;;;0.73;0.57;;;;;;;8.82;66.20;98400.53;5105617;28;43212;-84
2022/02/04 15:28:44;;;;;;;0.50;0.50;;;;;;;8.78;66.81;98383.16;5095388;28;42552;-83
2022/02/04 15:31:22;;;;;;;0.70;0.70;;;;;;;8.85;66.61;98400.34;5118253;27;39065;-82
2022/02/04 15:33:51;;;;;;;0.40;0.40;;;;;;;8.85;66.63;98400.34;5104178;27;40775;-83
2022/02/04 15:36:27;;;;;;;0.60;0.47;;;;;;;8.66;66.78;98381.28;5114694;27;41463;-83
2022/02/04 15:38:55;;;;;;;0.43;0.43;;;;;;;8.64;66.30;98381.41;5114528;27;42502;-83
2022/02/04 15:41:25;;;;;;;0.50;0.50;;;;;;;8.72;66.27;98394.13;5125176;27;41624;-82
2022/02/04 15:43:56;;;;;;;0.50;0.50;;;;;;;8.49;66.79;98349.84;5114469;27;41347;-83
2022/02/04 15:46:41;;;;;;;0.50;0.50;;;;;;;8.67;66.81;98368.94;5102584;27;42958;-84
2022/02/04 15:49:24;;;;;;;0.70;0.53;;;;;;;8.44;67.23;98342.19;5109267;27;41143;-83
2022/02/04 15:52:25;;;;;;;0.50;0.50;;;;;;;8.76;66.92;98385.09;5116333;27;38923;-84
2022/02/04 15:55:08;;;;;;;0.50;0.50;;;;;;;8.74;67.14;98384.31;5107987;27;41208;-79
2022/02/04 15:57:47;;;;;;;0.60;0.60;;;;;;;8.60;67.07;98358.78;5122755;27;43333;-83
2022/02/04 16:00:37;;;;;;;0.40;0.40;;;;;;;8.59;67.27;98346.53;5111026;28;42696;-83
2022/02/04 16:05:50;;;;;;;0.60;0.57;;;;;;;8.59;67.32;98348.31;5110078;27;40550;-84
2022/02/04 16:08:20;;;;;;;0.60;0.60;;;;;;;8.68;67.26;98366.22;5110532;27;43374;-83
2022/02/04 16:10:58;;;;;;;0.57;0.57;;;;;;;8.73;67.57;98372.06;5106266;27;42440;-85
2022/02/04 16:13:44;;;;;;;0.50;0.50;;;;;;;8.70;67.53;98374.03;5110667;27;39989;-83
2022/02/04 16:16:24;;;;;;;0.50;0.47;;;;;;;8.79;67.57;98389.28;5120958;27;42294;-84
2022/02/04 16:21:38;;;;;;;0.40;0.40;;;;;;;8.78;67.45;98388.44;5120387;27;41230;-84
2022/02/04 16:27:11;;;;;;;0.77;0.77;;;;;;;8.77;67.79;98397.34;5078238;28;41820;-83
2022/02/04 16:29:39;;;;;;;0.63;0.50;;;;;;;8.59;67.45;98346.53;5101225;27;42770;-84
2022/02/04 16:32:08;;;;;;;0.40;0.40;;;;;;;8.81;67.76;98387.41;5107919;27;42369;-82
2022/02/04 16:34:35;;;;;;;0.53;0.53;;;;;;;8.79;67.95;98384.88;5113458;27;38768;-83
2022/02/04 16:37:05;;;;;;;0.60;0.50;;;;;;;8.66;68.13;98376.00;5109388;27;42186;-84
2022/02/04 16:39:36;;;;;;;0.50;0.50;;;;;;;8.70;68.39;98380.16;5114954;27;42007;-82
2022/02/04 16:42:11;;;;;;;0.53;0.53;;;;;;;8.53;69.14;98361.91;5105302;27;41133;-84
2022/02/04 16:44:38;;;;;;;1.80;0.60;;;;;;;8.51;69.50;98358.53;5101444;27;38608;-82
2022/02/04 16:47:06;;;;;;;0.30;0.30;;;;;;;8.50;71.02;98370.00;5126395;27;40883;-84
2022/02/04 16:49:34;;;;;;;0.53;0.53;;;;;;;8.25;71.73;98342.47;5130124;27;44089;-83
2022/02/04 16:52:02;;;;;;;0.50;0.50;;;;;;;8.35;72.29;98365.69;5131763;27;44797;-83
2022/02/04 16:54:31;;;;;;;0.50;0.50;;;;;;;8.21;72.77;98346.22;5111427;27;39538;-83
2022/02/04 16:57:02;;;;;;;1.03;0.70;;;;;;;8.24;72.71;98353.13;5125165;27;41850;-81
2022/02/04 16:59:30;;;;;;;0.60;0.50;;;;;;;8.22;72.91;98350.56;5127203;27;42619;-83
2022/02/04 17:01:58;;;;;;;0.60;0.60;;;;;;;7.95;73.20;98304.75;5128390;27;41203;-82
2022/02/04 17:04:26;;;;;;;0.50;0.50;;;;;;;8.25;73.34;98346.91;5121271;27;39854;-81
2022/02/04 17:06:59;;;;;;;0.60;0.60;;;;;;;8.13;73.42;98331.81;5122012;27;41430;-82
2022/02/04 17:09:31;;;;;;;0.60;0.60;;;;;;;8.24;73.35;98351.31;5125988;27;43240;-83
2022/02/04 17:12:06;;;;;;;0.57;0.57;;;;;;;8.17;73.23;98343.84;5107008;27;41472;-83
2022/02/04 17:14:35;;;;;;;0.80;0.80;;;;;;;8.21;73.54;98351.50;5124801;27;38807;-82
2022/02/04 17:17:04;;;;;;;0.90;0.50;;;;;;;8.14;73.49;98334.38;5122431;27;41848;-83
2022/02/04 17:19:38;;;;;;;0.70;0.40;;;;;;;8.27;73.45;98345.88;5126293;27;42382;-83
2022/02/04 17:22:07;;;;;;;0.47;0.47;;;;;;;8.19;73.08;98337.56;5120657;27;42829;-83
2022/02/04 17:24:35;;;;;;;0.57;0.50;;;;;;;8.17;73.03;98326.25;5125200;27;39094;-83
2022/02/04 17:27:04;;;;;;;1.07;1.03;;;;;;;8.32;73.28;98347.38;5122781;27;41564;-83
2022/02/04 17:29:32;;;;;;;0.40;0.40;;;;;;;8.35;73.02;98352.47;5108992;27;43552;-83
2022/02/04 17:32:00;;;;;;;0.50;0.47;;;;;;;8.36;73.04;98354.19;5112625;27;41348;-83
2022/02/04 17:34:27;;;;;;;0.50;0.50;;;;;;;8.41;73.03;98352.09;5117967;27;40821;-83
2022/02/04 17:36:55;;;;;;;0.53;0.53;;;;;;;8.33;72.69;98339.38;5125459;27;41651;-83
2022/02/04 17:39:24;;;;;;;0.57;0.57;;;;;;;8.05;72.41;98287.44;5105982;27;41934;-83
2022/02/04 17:41:54;;;;;;;0.40;0.40;;;;;;;8.43;72.63;98345.78;5103304;27;42242;-83
2022/02/04 17:44:23;;;;;;;0.70;0.70;;;;;;;8.36;72.31;98328.66;5103794;27;39969;-83
2022/02/04 17:46:52;;;;;;;1.03;0.93;;;;;;;8.32;72.82;98326.28;5128396;27;43263;-83
2022/02/04 17:49:25;;;;;;;0.73;0.60;;;;;;;8.47;72.38;98346.44;5113716;27;41613;-83
2022/02/04 17:51:57;;;;;;;0.80;0.60;;;;;;;8.50;73.22;98351.53;5127148;27;42137;-83
2022/02/04 17:54:33;;;;;;;1.00;0.53;;;;;;;8.45;72.76;98337.78;5123501;27;40752;-83
2022/02/04 17:57:05;;;;;;;0.80;0.80;;;;;;;8.53;72.70;98346.09;5130199;27;42012;-83
